sensor_id;sensor_type;location;lat;lon;timestamp;P1;durP1;ratioP1;P2;durP2;ratioP2
66272;SDS011;58450;52.150;4.466;2024-02-21T00:02:06;15.02;;;3.00;;
66272;SDS011;58450;52.150;4.466;2024-02-21T00:04:34;17.13;;;3.05;;
66272;SDS011;58450;52.150;4.466;2024-02-21T00:07:02;17.30;;;3.42;;
66272;SDS011;58450;52.150;4.466;2024-02-21T00:09:29;16.65;;;2.88;;
66272;SDS011;58450;52.150;4.466;2024-02-21T00:11:55;20.23;;;3.75;;
66272;SDS011;58450;52.150;4.466;2024-02-21T00:14:24;21.15;;;4.10;;
66272;SDS011;58450;52.150;4.466;2024-02-21T00:16:50;20.55;;;3.63;;
66272;SDS011;58450;52.150;4.466;2024-02-21T00:19:17;23.25;;;4.95;;
66272;SDS011;58450;52.150;4.466;2024-02-21T00:21:45;19.42;;;3.22;;
66272;SDS011;58450;52.150;4.466;2024-02-21T00:24:12;15.73;;;2.72;;
66272;SDS011;58450;52.150;4.466;2024-02-21T00:26:39;17.73;;;3.13;;
66272;SDS011;58450;52.150;4.466;2024-02-21T00:29:05;28.20;;;3.72;;
66272;SDS011;58450;52.150;4.466;2024-02-21T00:31:32;14.20;;;2.60;;
66272;SDS011;58450;52.150;4.466;2024-02-21T00:33:59;24.25;;;4.10;;
66272;SDS011;58450;52.150;4.466;2024-02-21T00:36:26;19.30;;;3.42;;
66272;SDS011;58450;52.150;4.466;2024-02-21T00:38:54;16.05;;;3.30;;
66272;SDS011;58450;52.150;4.466;2024-02-21T00:41:21;18.27;;;3.33;;
66272;SDS011;58450;52.150;4.466;2024-02-21T00:43:47;18.35;;;3.15;;
66272;SDS011;58450;52.150;4.466;2024-02-21T00:46:15;23.20;;;3.65;;
66272;SDS011;58450;52.150;4.466;2024-02-21T00:48:42;18.33;;;3.20;;
66272;SDS011;58450;52.150;4.466;2024-02-21T00:51:09;16.48;;;3.17;;
66272;SDS011;58450;52.150;4.466;2024-02-21T00:53:35;21.10;;;3.45;;
66272;SDS011;58450;52.150;4.466;2024-02-21T00:56:05;23.73;;;3.70;;
66272;SDS011;58450;52.150;4.466;2024-02-21T00:58:32;20.88;;;3.20;;
66272;SDS011;58450;52.150;4.466;2024-02-21T01:01:00;17.42;;;2.80;;
66272;SDS011;58450;52.150;4.466;2024-02-21T01:03:27;23.42;;;2.88;;
66272;SDS011;58450;52.150;4.466;2024-02-21T01:05:53;15.32;;;2.65;;
66272;SDS011;58450;52.150;4.466;2024-02-21T01:08:20;19.08;;;3.10;;
66272;SDS011;58450;52.150;4.466;2024-02-21T01:10:47;19.02;;;3.00;;
66272;SDS011;58450;52.150;4.466;2024-02-21T01:13:15;15.20;;;3.58;;
66272;SDS011;58450;52.150;4.466;2024-02-21T01:15:41;23.05;;;3.60;;
66272;SDS011;58450;52.150;4.466;2024-02-21T01:18:08;20.15;;;3.40;;
66272;SDS011;58450;52.150;4.466;2024-02-21T01:20:35;18.25;;;2.97;;
66272;SDS011;58450;52.150;4.466;2024-02-21T01:23:02;19.27;;;3.60;;
66272;SDS011;58450;52.150;4.466;2024-02-21T01:25:28;16.52;;;2.90;;
66272;SDS011;58450;52.150;4.466;2024-02-21T01:27:55;21.02;;;3.33;;
66272;SDS011;58450;52.150;4.466;2024-02-21T01:30:23;17.45;;;3.30;;
66272;SDS011;58450;52.150;4.466;2024-02-21T01:32:50;16.40;;;3.28;;
66272;SDS011;58450;52.150;4.466;2024-02-21T01:35:17;18.63;;;3.42;;
66272;SDS011;58450;52.150;4.466;2024-02-21T01:37:43;20.48;;;3.38;;
66272;SDS011;58450;52.150;4.466;2024-02-21T01:40:10;20.02;;;2.97;;
66272;SDS011;58450;52.150;4.466;2024-02-21T01:42:38;21.38;;;3.75;;
66272;SDS011;58450;52.150;4.466;2024-02-21T01:45:05;20.00;;;2.97;;
66272;SDS011;58450;52.150;4.466;2024-02-21T01:47:33;18.45;;;2.83;;
66272;SDS011;58450;52.150;4.466;2024-02-21T01:50:00;17.15;;;2.60;;
66272;SDS011;58450;52.150;4.466;2024-02-21T01:52:28;21.90;;;2.88;;
66272;SDS011;58450;52.150;4.466;2024-02-21T01:54:54;19.77;;;2.78;;
66272;SDS011;58450;52.150;4.466;2024-02-21T01:57:22;23.50;;;3.97;;
66272;SDS011;58450;52.150;4.466;2024-02-21T01:59:49;18.38;;;3.35;;
66272;SDS011;58450;52.150;4.466;2024-02-21T02:02:15;15.75;;;3.08;;
66272;SDS011;58450;52.150;4.466;2024-02-21T02:04:44;19.70;;;3.17;;
66272;SDS011;58450;52.150;4.466;2024-02-21T02:07:11;16.63;;;3.25;;
66272;SDS011;58450;52.150;4.466;2024-02-21T02:09:38;17.58;;;2.60;;
66272;SDS011;58450;52.150;4.466;2024-02-21T02:12:04;22.70;;;3.88;;
66272;SDS011;58450;52.150;4.466;2024-02-21T02:14:32;27.40;;;4.45;;
66272;SDS011;58450;52.150;4.466;2024-02-21T02:16:58;23.63;;;4.57;;
66272;SDS011;58450;52.150;4.466;2024-02-21T02:19:25;15.38;;;2.63;;
66272;SDS011;58450;52.150;4.466;2024-02-21T02:21:55;21.08;;;3.33;;
66272;SDS011;58450;52.150;4.466;2024-02-21T02:24:24;17.25;;;3.80;;
66272;SDS011;58450;52.150;4.466;2024-02-21T02:26:51;25.25;;;3.92;;
66272;SDS011;58450;52.150;4.466;2024-02-21T02:29:17;23.45;;;3.17;;
66272;SDS011;58450;52.150;4.466;2024-02-21T02:31:44;17.80;;;3.47;;
66272;SDS011;58450;52.150;4.466;2024-02-21T02:34:11;15.30;;;3.03;;
66272;SDS011;58450;52.150;4.466;2024-02-21T02:36:38;18.52;;;3.00;;
66272;SDS011;58450;52.150;4.466;2024-02-21T02:39:05;22.25;;;3.55;;
66272;SDS011;58450;52.150;4.466;2024-02-21T02:41:35;17.27;;;3.70;;
66272;SDS011;58450;52.150;4.466;2024-02-21T02:44:02;16.48;;;3.42;;
66272;SDS011;58450;52.150;4.466;2024-02-21T02:46:29;18.88;;;3.20;;
66272;SDS011;58450;52.150;4.466;2024-02-21T02:48:55;17.70;;;3.08;;
66272;SDS011;58450;52.150;4.466;2024-02-21T02:51:22;15.23;;;2.90;;
66272;SDS011;58450;52.150;4.466;2024-02-21T02:53:49;19.00;;;3.15;;
66272;SDS011;58450;52.150;4.466;2024-02-21T02:56:16;22.20;;;3.63;;
66272;SDS011;58450;52.150;4.466;2024-02-21T02:58:44;23.48;;;3.67;;
66272;SDS011;58450;52.150;4.466;2024-02-21T03:01:10;19.00;;;3.13;;
66272;SDS011;58450;52.150;4.466;2024-02-21T03:03:37;16.73;;;3.13;;
66272;SDS011;58450;52.150;4.466;2024-02-21T03:06:04;20.65;;;3.33;;
66272;SDS011;58450;52.150;4.466;2024-02-21T03:08:31;16.58;;;4.30;;
66272;SDS011;58450;52.150;4.466;2024-02-21T03:10:58;23.58;;;3.70;;
66272;SDS011;58450;52.150;4.466;2024-02-21T03:13:25;16.45;;;3.00;;
66272;SDS011;58450;52.150;4.466;2024-02-21T03:15:53;18.60;;;3.58;;
66272;SDS011;58450;52.150;4.466;2024-02-21T03:18:20;14.63;;;2.88;;
66272;SDS011;58450;52.150;4.466;2024-02-21T03:20:47;20.30;;;3.83;;
66272;SDS011;58450;52.150;4.466;2024-02-21T03:23:13;18.05;;;3.38;;
66272;SDS011;58450;52.150;4.466;2024-02-21T03:25:40;21.55;;;3.72;;
66272;SDS011;58450;52.150;4.466;2024-02-21T03:28:07;18.83;;;3.95;;
66272;SDS011;58450;52.150;4.466;2024-02-21T03:30:34;19.30;;;3.47;;
66272;SDS011;58450;52.150;4.466;2024-02-21T03:33:02;19.55;;;3.53;;
66272;SDS011;58450;52.150;4.466;2024-02-21T03:35:29;15.90;;;4.15;;
66272;SDS011;58450;52.150;4.466;2024-02-21T03:37:55;17.08;;;3.92;;
66272;SDS011;58450;52.150;4.466;2024-02-21T03:40:22;19.90;;;3.95;;
66272;SDS011;58450;52.150;4.466;2024-02-21T03:42:49;15.77;;;3.63;;
66272;SDS011;58450;52.150;4.466;2024-02-21T03:45:15;13.63;;;3.70;;
66272;SDS011;58450;52.150;4.466;2024-02-21T03:47:42;16.27;;;3.85;;
66272;SDS011;58450;52.150;4.466;2024-02-21T03:50:10;18.45;;;4.20;;
66272;SDS011;58450;52.150;4.466;2024-02-21T03:52:37;20.48;;;4.30;;
66272;SDS011;58450;52.150;4.466;2024-02-21T03:55:04;17.60;;;4.65;;
66272;SDS011;58450;52.150;4.466;2024-02-21T03:57:33;17.42;;;4.45;;
66272;SDS011;58450;52.150;4.466;2024-02-21T03:59:59;14.10;;;4.03;;
66272;SDS011;58450;52.150;4.466;2024-02-21T04:02:26;14.35;;;4.53;;
66272;SDS011;58450;52.150;4.466;2024-02-21T04:04:53;14.60;;;4.43;;
66272;SDS011;58450;52.150;4.466;2024-02-21T04:07:21;19.83;;;4.97;;
66272;SDS011;58450;52.150;4.466;2024-02-21T04:09:48;19.35;;;5.55;;
66272;SDS011;58450;52.150;4.466;2024-02-21T04:12:15;17.23;;;4.85;;
66272;SDS011;58450;52.150;4.466;2024-02-21T04:14:41;13.82;;;4.82;;
66272;SDS011;58450;52.150;4.466;2024-02-21T04:17:08;11.27;;;4.38;;
66272;SDS011;58450;52.150;4.466;2024-02-21T04:19:35;17.95;;;4.88;;
66272;SDS011;58450;52.150;4.466;2024-02-21T04:22:01;16.15;;;5.10;;
66272;SDS011;58450;52.150;4.466;2024-02-21T04:24:29;17.15;;;5.43;;
66272;SDS011;58450;52.150;4.466;2024-02-21T04:26:56;16.55;;;5.00;;
66272;SDS011;58450;52.150;4.466;2024-02-21T04:29:23;16.98;;;5.10;;
66272;SDS011;58450;52.150;4.466;2024-02-21T04:31:50;17.83;;;6.07;;
66272;SDS011;58450;52.150;4.466;2024-02-21T04:34:16;13.50;;;5.63;;
66272;SDS011;58450;52.150;4.466;2024-02-21T04:36:43;17.92;;;5.45;;
66272;SDS011;58450;52.150;4.466;2024-02-21T04:39:10;17.17;;;6.13;;
66272;SDS011;58450;52.150;4.466;2024-02-21T04:41:38;19.75;;;5.70;;
66272;SDS011;58450;52.150;4.466;2024-02-21T04:44:04;14.80;;;5.55;;
66272;SDS011;58450;52.150;4.466;2024-02-21T04:46:31;16.33;;;6.13;;
66272;SDS011;58450;52.150;4.466;2024-02-21T04:48:58;17.20;;;5.20;;
66272;SDS011;58450;52.150;4.466;2024-02-21T04:51:25;17.95;;;5.80;;
66272;SDS011;58450;52.150;4.466;2024-02-21T04:53:51;16.90;;;5.72;;
66272;SDS011;58450;52.150;4.466;2024-02-21T04:56:18;14.45;;;5.72;;
66272;SDS011;58450;52.150;4.466;2024-02-21T04:58:46;15.57;;;5.57;;
66272;SDS011;58450;52.150;4.466;2024-02-21T05:01:13;14.75;;;5.40;;
66272;SDS011;58450;52.150;4.466;2024-02-21T05:03:39;16.35;;;5.00;;
66272;SDS011;58450;52.150;4.466;2024-02-21T05:06:06;15.82;;;5.15;;
66272;SDS011;58450;52.150;4.466;2024-02-21T05:08:33;17.00;;;5.15;;
66272;SDS011;58450;52.150;4.466;2024-02-21T05:10:59;17.05;;;5.10;;
66272;SDS011;58450;52.150;4.466;2024-02-21T05:13:26;15.73;;;4.50;;
66272;SDS011;58450;52.150;4.466;2024-02-21T05:15:54;14.73;;;5.28;;
66272;SDS011;58450;52.150;4.466;2024-02-21T05:18:21;14.60;;;5.05;;
66272;SDS011;58450;52.150;4.466;2024-02-21T05:20:48;18.75;;;4.60;;
66272;SDS011;58450;52.150;4.466;2024-02-21T05:23:14;11.85;;;4.25;;
66272;SDS011;58450;52.150;4.466;2024-02-21T05:25:41;17.13;;;5.43;;
66272;SDS011;58450;52.150;4.466;2024-02-21T05:28:08;14.27;;;4.38;;
66272;SDS011;58450;52.150;4.466;2024-02-21T05:30:35;13.57;;;4.80;;
66272;SDS011;58450;52.150;4.466;2024-02-21T05:33:05;10.38;;;4.82;;
66272;SDS011;58450;52.150;4.466;2024-02-21T05:35:32;17.60;;;5.53;;
66272;SDS011;58450;52.150;4.466;2024-02-21T05:37:59;13.57;;;5.97;;
66272;SDS011;58450;52.150;4.466;2024-02-21T05:40:26;17.33;;;7.00;;
66272;SDS011;58450;52.150;4.466;2024-02-21T05:42:53;12.88;;;6.45;;
66272;SDS011;58450;52.150;4.466;2024-02-21T05:45:19;17.45;;;8.30;;
66272;SDS011;58450;52.150;4.466;2024-02-21T05:47:46;14.55;;;6.95;;
66272;SDS011;58450;52.150;4.466;2024-02-21T05:50:14;17.88;;;7.68;;
66272;SDS011;58450;52.150;4.466;2024-02-21T05:52:41;13.82;;;6.78;;
66272;SDS011;58450;52.150;4.466;2024-02-21T05:55:08;16.08;;;7.13;;
66272;SDS011;58450;52.150;4.466;2024-02-21T05:57:35;13.27;;;7.03;;
66272;SDS011;58450;52.150;4.466;2024-02-21T06:00:03;14.93;;;6.57;;
66272;SDS011;58450;52.150;4.466;2024-02-21T06:02:30;11.75;;;6.53;;
66272;SDS011;58450;52.150;4.466;2024-02-21T06:04:57;17.90;;;6.72;;
66272;SDS011;58450;52.150;4.466;2024-02-21T06:07:25;15.80;;;7.13;;
66272;SDS011;58450;52.150;4.466;2024-02-21T06:09:52;16.23;;;6.90;;
66272;SDS011;58450;52.150;4.466;2024-02-21T06:12:18;15.25;;;7.60;;
66272;SDS011;58450;52.150;4.466;2024-02-21T06:14:45;17.45;;;7.97;;
66272;SDS011;58450;52.150;4.466;2024-02-21T06:17:12;15.07;;;7.72;;
66272;SDS011;58450;52.150;4.466;2024-02-21T06:19:39;15.15;;;7.38;;
66272;SDS011;58450;52.150;4.466;2024-02-21T06:22:07;15.40;;;7.53;;
66272;SDS011;58450;52.150;4.466;2024-02-21T06:24:35;15.00;;;7.47;;
66272;SDS011;58450;52.150;4.466;2024-02-21T06:27:03;12.70;;;7.00;;
66272;SDS011;58450;52.150;4.466;2024-02-21T06:29:31;15.98;;;7.32;;
66272;SDS011;58450;52.150;4.466;2024-02-21T06:31:58;17.63;;;7.72;;
66272;SDS011;58450;52.150;4.466;2024-02-21T06:34:25;16.17;;;8.02;;
66272;SDS011;58450;52.150;4.466;2024-02-21T06:36:51;18.63;;;8.43;;
66272;SDS011;58450;52.150;4.466;2024-02-21T06:39:18;15.23;;;7.68;;
66272;SDS011;58450;52.150;4.466;2024-02-21T06:41:47;15.38;;;9.05;;
66272;SDS011;58450;52.150;4.466;2024-02-21T06:44:15;17.20;;;9.20;;
66272;SDS011;58450;52.150;4.466;2024-02-21T06:46:42;17.38;;;9.52;;
66272;SDS011;58450;52.150;4.466;2024-02-21T06:49:09;22.83;;;10.43;;
66272;SDS011;58450;52.150;4.466;2024-02-21T06:51:41;19.33;;;10.77;;
66272;SDS011;58450;52.150;4.466;2024-02-21T06:54:08;18.08;;;9.50;;
66272;SDS011;58450;52.150;4.466;2024-02-21T06:56:35;18.05;;;10.40;;
66272;SDS011;58450;52.150;4.466;2024-02-21T06:59:03;19.88;;;10.38;;
66272;SDS011;58450;52.150;4.466;2024-02-21T07:01:30;21.63;;;10.02;;
66272;SDS011;58450;52.150;4.466;2024-02-21T07:03:57;19.13;;;10.00;;
66272;SDS011;58450;52.150;4.466;2024-02-21T07:06:23;16.75;;;9.20;;
66272;SDS011;58450;52.150;4.466;2024-02-21T07:08:50;23.10;;;11.25;;
66272;SDS011;58450;52.150;4.466;2024-02-21T07:11:17;19.30;;;10.50;;
66272;SDS011;58450;52.150;4.466;2024-02-21T07:13:44;21.02;;;11.20;;
66272;SDS011;58450;52.150;4.466;2024-02-21T07:16:12;20.48;;;10.98;;
66272;SDS011;58450;52.150;4.466;2024-02-21T07:18:38;22.13;;;10.82;;
66272;SDS011;58450;52.150;4.466;2024-02-21T07:21:05;23.88;;;11.68;;
66272;SDS011;58450;52.150;4.466;2024-02-21T07:23:32;24.55;;;11.15;;
66272;SDS011;58450;52.150;4.466;2024-02-21T07:25:58;20.33;;;11.50;;
66272;SDS011;58450;52.150;4.466;2024-02-21T07:28:25;26.35;;;11.55;;
66272;SDS011;58450;52.150;4.466;2024-02-21T07:30:52;27.25;;;11.52;;
66272;SDS011;58450;52.150;4.466;2024-02-21T07:33:20;20.67;;;11.60;;
66272;SDS011;58450;52.150;4.466;2024-02-21T07:35:47;23.15;;;10.60;;
66272;SDS011;58450;52.150;4.466;2024-02-21T07:38:13;21.08;;;10.40;;
66272;SDS011;58450;52.150;4.466;2024-02-21T07:40:40;22.05;;;9.80;;
66272;SDS011;58450;52.150;4.466;2024-02-21T07:43:07;19.88;;;10.75;;
66272;SDS011;58450;52.150;4.466;2024-02-21T07:45:33;21.77;;;10.50;;
66272;SDS011;58450;52.150;4.466;2024-02-21T07:48:00;21.42;;;10.90;;
66272;SDS011;58450;52.150;4.466;2024-02-21T07:50:29;20.25;;;10.63;;
66272;SDS011;58450;52.150;4.466;2024-02-21T07:52:55;23.73;;;10.73;;
66272;SDS011;58450;52.150;4.466;2024-02-21T07:55:22;22.00;;;10.77;;
66272;SDS011;58450;52.150;4.466;2024-02-21T07:57:49;22.58;;;11.27;;
66272;SDS011;58450;52.150;4.466;2024-02-21T08:00:16;23.65;;;11.32;;
66272;SDS011;58450;52.150;4.466;2024-02-21T08:02:45;20.98;;;10.98;;
66272;SDS011;58450;52.150;4.466;2024-02-21T08:05:12;21.98;;;10.48;;
66272;SDS011;58450;52.150;4.466;2024-02-21T08:07:40;24.15;;;10.40;;
66272;SDS011;58450;52.150;4.466;2024-02-21T08:10:07;24.40;;;10.95;;
66272;SDS011;58450;52.150;4.466;2024-02-21T08:12:34;18.52;;;10.43;;
66272;SDS011;58450;52.150;4.466;2024-02-21T08:15:01;21.95;;;10.77;;
66272;SDS011;58450;52.150;4.466;2024-02-21T08:17:28;20.35;;;10.40;;
66272;SDS011;58450;52.150;4.466;2024-02-21T08:19:55;16.55;;;9.70;;
66272;SDS011;58450;52.150;4.466;2024-02-21T08:22:22;20.85;;;9.45;;
66272;SDS011;58450;52.150;4.466;2024-02-21T08:24:50;19.83;;;9.90;;
66272;SDS011;58450;52.150;4.466;2024-02-21T08:27:17;18.92;;;9.43;;
66272;SDS011;58450;52.150;4.466;2024-02-21T08:29:43;18.20;;;9.05;;
66272;SDS011;58450;52.150;4.466;2024-02-21T08:32:10;18.75;;;9.32;;
66272;SDS011;58450;52.150;4.466;2024-02-21T08:34:37;19.17;;;10.30;;
66272;SDS011;58450;52.150;4.466;2024-02-21T08:37:04;16.73;;;8.52;;
66272;SDS011;58450;52.150;4.466;2024-02-21T08:39:30;18.60;;;10.20;;
66272;SDS011;58450;52.150;4.466;2024-02-21T08:41:58;19.40;;;8.98;;
66272;SDS011;58450;52.150;4.466;2024-02-21T08:44:27;20.90;;;9.98;;
66272;SDS011;58450;52.150;4.466;2024-02-21T08:46:54;19.60;;;10.90;;
66272;SDS011;58450;52.150;4.466;2024-02-21T08:49:21;17.80;;;10.77;;
66272;SDS011;58450;52.150;4.466;2024-02-21T08:51:47;20.70;;;12.35;;
66272;SDS011;58450;52.150;4.466;2024-02-21T08:54:14;23.85;;;12.20;;
66272;SDS011;58450;52.150;4.466;2024-02-21T08:56:41;20.30;;;11.77;;
66272;SDS011;58450;52.150;4.466;2024-02-21T08:59:09;23.00;;;11.45;;
66272;SDS011;58450;52.150;4.466;2024-02-21T09:01:36;25.73;;;13.55;;
66272;SDS011;58450;52.150;4.466;2024-02-21T09:04:02;22.00;;;12.40;;
66272;SDS011;58450;52.150;4.466;2024-02-21T09:06:29;24.48;;;13.70;;
66272;SDS011;58450;52.150;4.466;2024-02-21T09:08:57;26.17;;;12.82;;
66272;SDS011;58450;52.150;4.466;2024-02-21T09:11:24;20.67;;;12.18;;
66272;SDS011;58450;52.150;4.466;2024-02-21T09:13:52;20.67;;;11.48;;
66272;SDS011;58450;52.150;4.466;2024-02-21T09:16:21;23.55;;;11.30;;
66272;SDS011;58450;52.150;4.466;2024-02-21T09:18:48;16.73;;;10.05;;
66272;SDS011;58450;52.150;4.466;2024-02-21T09:21:14;18.55;;;9.85;;
66272;SDS011;58450;52.150;4.466;2024-02-21T09:23:41;14.77;;;9.52;;
66272;SDS011;58450;52.150;4.466;2024-02-21T09:26:08;17.95;;;10.35;;
66272;SDS011;58450;52.150;4.466;2024-02-21T09:28:39;17.73;;;10.65;;
66272;SDS011;58450;52.150;4.466;2024-02-21T09:31:05;19.58;;;10.43;;
66272;SDS011;58450;52.150;4.466;2024-02-21T09:33:33;19.88;;;10.27;;
66272;SDS011;58450;52.150;4.466;2024-02-21T09:36:00;17.23;;;10.00;;
66272;SDS011;58450;52.150;4.466;2024-02-21T09:38:27;16.67;;;9.20;;
66272;SDS011;58450;52.150;4.466;2024-02-21T09:40:55;15.48;;;8.13;;
66272;SDS011;58450;52.150;4.466;2024-02-21T09:43:25;18.90;;;10.27;;
66272;SDS011;58450;52.150;4.466;2024-02-21T09:45:52;16.30;;;9.43;;
66272;SDS011;58450;52.150;4.466;2024-02-21T09:48:25;16.33;;;9.52;;
66272;SDS011;58450;52.150;4.466;2024-02-21T09:50:55;16.48;;;8.20;;
66272;SDS011;58450;52.150;4.466;2024-02-21T09:53:24;19.65;;;9.60;;
66272;SDS011;58450;52.150;4.466;2024-02-21T09:55:50;19.13;;;9.95;;
66272;SDS011;58450;52.150;4.466;2024-02-21T09:58:18;18.52;;;9.77;;
66272;SDS011;58450;52.150;4.466;2024-02-21T10:00:45;16.52;;;9.30;;
66272;SDS011;58450;52.150;4.466;2024-02-21T10:03:11;16.67;;;9.00;;
66272;SDS011;58450;52.150;4.466;2024-02-21T10:05:38;16.02;;;9.02;;
66272;SDS011;58450;52.150;4.466;2024-02-21T10:08:07;13.48;;;8.80;;
66272;SDS011;58450;52.150;4.466;2024-02-21T10:10:40;16.30;;;9.13;;
66272;SDS011;58450;52.150;4.466;2024-02-21T10:13:07;18.27;;;10.18;;
66272;SDS011;58450;52.150;4.466;2024-02-21T10:15:34;16.95;;;9.98;;
66272;SDS011;58450;52.150;4.466;2024-02-21T10:18:01;15.48;;;9.50;;
66272;SDS011;58450;52.150;4.466;2024-02-21T10:20:28;15.32;;;9.15;;
66272;SDS011;58450;52.150;4.466;2024-02-21T10:23:01;16.25;;;9.38;;
66272;SDS011;58450;52.150;4.466;2024-02-21T10:25:30;16.23;;;8.65;;
66272;SDS011;58450;52.150;4.466;2024-02-21T10:27:57;13.73;;;7.43;;
66272;SDS011;58450;52.150;4.466;2024-02-21T10:30:23;14.55;;;7.80;;
66272;SDS011;58450;52.150;4.466;2024-02-21T10:32:50;16.67;;;7.82;;
66272;SDS011;58450;52.150;4.466;2024-02-21T10:35:25;13.32;;;8.43;;
66272;SDS011;58450;52.150;4.466;2024-02-21T10:37:52;14.02;;;8.25;;
66272;SDS011;58450;52.150;4.466;2024-02-21T10:40:21;15.48;;;9.38;;
66272;SDS011;58450;52.150;4.466;2024-02-21T10:42:49;15.80;;;9.43;;
66272;SDS011;58450;52.150;4.466;2024-02-21T10:45:18;15.45;;;9.43;;
66272;SDS011;58450;52.150;4.466;2024-02-21T10:47:46;16.67;;;8.88;;
66272;SDS011;58450;52.150;4.466;2024-02-21T10:50:15;16.75;;;9.57;;
66272;SDS011;58450;52.150;4.466;2024-02-21T10:52:44;15.57;;;9.55;;
66272;SDS011;58450;52.150;4.466;2024-02-21T10:55:20;19.27;;;10.38;;
66272;SDS011;58450;52.150;4.466;2024-02-21T10:57:50;15.85;;;10.60;;
66272;SDS011;58450;52.150;4.466;2024-02-21T11:00:17;16.40;;;10.88;;
66272;SDS011;58450;52.150;4.466;2024-02-21T11:02:44;15.15;;;9.80;;
66272;SDS011;58450;52.150;4.466;2024-02-21T11:05:11;17.00;;;10.75;;
66272;SDS011;58450;52.150;4.466;2024-02-21T11:07:38;14.93;;;9.82;;
66272;SDS011;58450;52.150;4.466;2024-02-21T11:10:05;15.82;;;10.45;;
66272;SDS011;58450;52.150;4.466;2024-02-21T11:12:33;15.77;;;10.07;;
66272;SDS011;58450;52.150;4.466;2024-02-21T11:15:07;15.57;;;9.43;;
66272;SDS011;58450;52.150;4.466;2024-02-21T11:17:34;15.93;;;9.23;;
66272;SDS011;58450;52.150;4.466;2024-02-21T11:20:10;16.80;;;11.95;;
66272;SDS011;58450;52.150;4.466;2024-02-21T11:22:42;17.00;;;11.50;;
66272;SDS011;58450;52.150;4.466;2024-02-21T11:25:09;13.68;;;10.13;;
66272;SDS011;58450;52.150;4.466;2024-02-21T11:27:37;16.02;;;10.88;;
66272;SDS011;58450;52.150;4.466;2024-02-21T11:30:04;15.88;;;10.90;;
66272;SDS011;58450;52.150;4.466;2024-02-21T11:32:33;15.63;;;9.82;;
66272;SDS011;58450;52.150;4.466;2024-02-21T11:35:00;14.25;;;9.75;;
66272;SDS011;58450;52.150;4.466;2024-02-21T11:37:29;14.45;;;9.57;;
66272;SDS011;58450;52.150;4.466;2024-02-21T11:39:57;17.17;;;10.25;;
66272;SDS011;58450;52.150;4.466;2024-02-21T11:42:24;15.25;;;9.93;;
66272;SDS011;58450;52.150;4.466;2024-02-21T11:44:51;16.02;;;9.25;;
66272;SDS011;58450;52.150;4.466;2024-02-21T11:47:18;15.77;;;9.98;;
66272;SDS011;58450;52.150;4.466;2024-02-21T11:49:46;13.95;;;8.52;;
66272;SDS011;58450;52.150;4.466;2024-02-21T11:52:15;12.65;;;8.50;;
66272;SDS011;58450;52.150;4.466;2024-02-21T11:54:44;14.75;;;9.13;;
66272;SDS011;58450;52.150;4.466;2024-02-21T11:57:11;14.13;;;9.18;;
66272;SDS011;58450;52.150;4.466;2024-02-21T11:59:39;13.05;;;8.27;;
66272;SDS011;58450;52.150;4.466;2024-02-21T12:02:06;12.13;;;8.25;;
66272;SDS011;58450;52.150;4.466;2024-02-21T12:04:33;14.40;;;7.32;;
66272;SDS011;58450;52.150;4.466;2024-02-21T12:07:02;14.02;;;8.32;;
66272;SDS011;58450;52.150;4.466;2024-02-21T12:09:30;11.38;;;7.50;;
66272;SDS011;58450;52.150;4.466;2024-02-21T12:11:57;13.50;;;7.70;;
66272;SDS011;58450;52.150;4.466;2024-02-21T12:14:24;13.43;;;7.18;;
66272;SDS011;58450;52.150;4.466;2024-02-21T12:16:51;15.95;;;8.55;;
66272;SDS011;58450;52.150;4.466;2024-02-21T12:19:17;11.25;;;7.07;;
66272;SDS011;58450;52.150;4.466;2024-02-21T12:21:44;10.93;;;7.20;;
66272;SDS011;58450;52.150;4.466;2024-02-21T12:24:13;12.80;;;6.90;;
66272;SDS011;58450;52.150;4.466;2024-02-21T12:26:40;12.25;;;7.13;;
66272;SDS011;58450;52.150;4.466;2024-02-21T12:29:07;10.23;;;6.07;;
66272;SDS011;58450;52.150;4.466;2024-02-21T12:31:34;10.88;;;6.45;;
66272;SDS011;58450;52.150;4.466;2024-02-21T12:34:01;11.02;;;6.10;;
66272;SDS011;58450;52.150;4.466;2024-02-21T12:36:28;11.10;;;7.07;;
66272;SDS011;58450;52.150;4.466;2024-02-21T12:38:55;11.90;;;6.68;;
66272;SDS011;58450;52.150;4.466;2024-02-21T12:41:23;13.65;;;6.45;;
66272;SDS011;58450;52.150;4.466;2024-02-21T12:43:50;12.88;;;6.43;;
66272;SDS011;58450;52.150;4.466;2024-02-21T12:46:17;10.93;;;6.30;;
66272;SDS011;58450;52.150;4.466;2024-02-21T12:48:44;13.23;;;6.90;;
66272;SDS011;58450;52.150;4.466;2024-02-21T12:51:11;12.10;;;6.90;;
66272;SDS011;58450;52.150;4.466;2024-02-21T12:53:37;11.52;;;7.13;;
66272;SDS011;58450;52.150;4.466;2024-02-21T12:56:05;13.05;;;6.65;;
66272;SDS011;58450;52.150;4.466;2024-02-21T12:58:34;13.38;;;7.30;;
66272;SDS011;58450;52.150;4.466;2024-02-21T13:01:01;11.52;;;7.03;;
66272;SDS011;58450;52.150;4.466;2024-02-21T13:03:28;10.45;;;7.35;;
66272;SDS011;58450;52.150;4.466;2024-02-21T13:05:56;11.90;;;7.45;;
66272;SDS011;58450;52.150;4.466;2024-02-21T13:08:24;11.00;;;7.25;;
66272;SDS011;58450;52.150;4.466;2024-02-21T13:10:51;19.05;;;8.55;;
66272;SDS011;58450;52.150;4.466;2024-02-21T13:13:18;14.70;;;7.85;;
66272;SDS011;58450;52.150;4.466;2024-02-21T13:15:46;10.68;;;7.30;;
66272;SDS011;58450;52.150;4.466;2024-02-21T13:18:13;11.63;;;7.20;;
66272;SDS011;58450;52.150;4.466;2024-02-21T13:20:39;12.35;;;7.88;;
66272;SDS011;58450;52.150;4.466;2024-02-21T13:23:06;11.63;;;7.13;;
66272;SDS011;58450;52.150;4.466;2024-02-21T13:25:33;14.55;;;8.02;;
66272;SDS011;58450;52.150;4.466;2024-02-21T13:28:00;15.02;;;7.97;;
66272;SDS011;58450;52.150;4.466;2024-02-21T13:30:27;15.68;;;8.43;;
66272;SDS011;58450;52.150;4.466;2024-02-21T13:32:55;14.55;;;8.43;;
66272;SDS011;58450;52.150;4.466;2024-02-21T13:35:22;13.52;;;8.68;;
66272;SDS011;58450;52.150;4.466;2024-02-21T13:37:48;13.50;;;8.65;;
66272;SDS011;58450;52.150;4.466;2024-02-21T13:40:15;14.13;;;9.35;;
66272;SDS011;58450;52.150;4.466;2024-02-21T13:42:42;12.60;;;8.73;;
66272;SDS011;58450;52.150;4.466;2024-02-21T13:45:09;15.68;;;9.48;;
66272;SDS011;58450;52.150;4.466;2024-02-21T13:47:36;16.52;;;10.32;;
66272;SDS011;58450;52.150;4.466;2024-02-21T13:50:06;16.08;;;10.65;;
66272;SDS011;58450;52.150;4.466;2024-02-21T13:52:34;12.70;;;9.30;;
66272;SDS011;58450;52.150;4.466;2024-02-21T13:55:01;14.82;;;9.02;;
66272;SDS011;58450;52.150;4.466;2024-02-21T13:57:28;13.23;;;8.50;;
66272;SDS011;58450;52.150;4.466;2024-02-21T13:59:54;15.93;;;10.30;;
66272;SDS011;58450;52.150;4.466;2024-02-21T14:02:21;17.95;;;10.93;;
66272;SDS011;58450;52.150;4.466;2024-02-21T14:04:48;14.70;;;10.57;;
66272;SDS011;58450;52.150;4.466;2024-02-21T14:07:16;15.38;;;10.52;;
66272;SDS011;58450;52.150;4.466;2024-02-21T14:09:43;16.33;;;10.30;;
66272;SDS011;58450;52.150;4.466;2024-02-21T14:12:10;15.02;;;9.40;;
66272;SDS011;58450;52.150;4.466;2024-02-21T14:14:37;16.05;;;8.48;;
66272;SDS011;58450;52.150;4.466;2024-02-21T14:17:04;13.45;;;7.70;;
66272;SDS011;58450;52.150;4.466;2024-02-21T14:19:30;13.25;;;8.18;;
66272;SDS011;58450;52.150;4.466;2024-02-21T14:21:57;13.05;;;8.20;;
66272;SDS011;58450;52.150;4.466;2024-02-21T14:24:25;13.13;;;7.80;;
66272;SDS011;58450;52.150;4.466;2024-02-21T14:26:53;12.38;;;7.03;;
66272;SDS011;58450;52.150;4.466;2024-02-21T14:29:20;14.77;;;8.13;;
66272;SDS011;58450;52.150;4.466;2024-02-21T14:31:47;14.32;;;8.15;;